Time;durP1;ratioP1;P1;durP2;ratioP2;P2;SDS_P1;SDS_P2;PMS_P1;PMS_P2;Temp;Humidity;BMP_temperature;BMP_pressure;BME280_temperature;BME280_humidity;BME280_pressure;Samples;Min_cycle;Max_cycle;Signal;HPM_P1;HPM_P2
2022/12/10 00:01:16;;;;;;;41.38;23.20;;;1.90;74.60;;;;;;4929681;28;114576;-81
2022/12/10 00:03:43;;;;;;;42.17;22.40;;;1.90;74.70;;;;;;4913276;28;115062;-80
2022/12/10 00:06:13;;;;;;;42.80;22.58;;;1.80;74.70;;;;;;4928246;28;114595;-80
2022/12/10 00:08:40;;;;;;;42.33;23.17;;;1.80;74.70;;;;;;4946665;28;114511;-81
2022/12/10 00:11:09;;;;;;;46.25;25.08;;;1.90;74.70;;;;;;4949870;28;114305;-80
2022/12/10 00:13:37;;;;;;;41.78;23.88;;;1.90;74.70;;;;;;4912894;28;118073;-80
2022/12/10 00:16:06;;;;;;;39.90;22.35;;;1.90;74.70;;;;;;4928984;28;115143;-80
2022/12/10 00:18:33;;;;;;;40.95;23.88;;;1.90;74.60;;;;;;4936647;28;117988;-80
2022/12/10 00:21:11;;;;;;;41.50;23.52;;;1.90;74.70;;;;;;4930492;28;114342;-80
2022/12/10 00:23:38;;;;;;;38.53;23.80;;;1.90;74.70;;;;;;4947680;28;115097;-80
2022/12/10 00:26:08;;;;;;;42.42;24.75;;;1.90;74.70;;;;;;4947702;28;114661;-80
2022/12/10 00:28:36;;;;;;;41.45;23.40;;;1.90;74.70;;;;;;4916620;28;114966;-80
2022/12/10 00:31:15;;;;;;;38.10;22.33;;;1.90;74.70;;;;;;4935265;28;114410;-80
2022/12/10 00:33:45;;;;;;;41.05;23.38;;;1.90;74.70;;;;;;4928733;28;115317;-80
2022/12/10 00:36:15;;;;;;;41.40;22.80;;;1.90;74.70;;;;;;4927743;28;114703;-81
2022/12/10 00:38:43;;;;;;;38.22;22.27;;;1.90;74.70;;;;;;4905231;28;114586;-80
2022/12/10 00:41:11;;;;;;;42.25;24.85;;;1.90;74.80;;;;;;4916218;28;114588;-80
2022/12/10 00:43:38;;;;;;;43.72;25.15;;;1.90;74.80;;;;;;4912235;28;115193;-80
2022/12/10 00:46:05;;;;;;;42.65;24.85;;;1.90;74.80;;;;;;4912817;28;114640;-80
2022/12/10 00:48:33;;;;;;;50.35;26.23;;;1.90;74.70;;;;;;4928465;28;114823;-81
2022/12/10 00:51:05;;;;;;;44.83;23.80;;;1.90;74.60;;;;;;4939910;28;114490;-80
2022/12/10 00:53:33;;;;;;;40.60;23.50;;;1.90;74.70;;;;;;4938266;28;116303;-80
2022/12/10 00:56:00;;;;;;;48.58;24.38;;;2.00;74.70;;;;;;4929985;28;114768;-80
2022/12/10 00:58:29;;;;;;;48.08;24.95;;;2.00;74.70;;;;;;4930107;28;114345;-81
2022/12/10 01:01:13;;;;;;;53.60;26.83;;;1.90;74.70;;;;;;4927409;28;114387;-81
2022/12/10 01:03:41;;;;;;;47.75;25.00;;;2.00;74.70;;;;;;4924998;28;116255;-80
2022/12/10 01:06:30;;;;;;;46.30;25.23;;;2.00;74.70;;;;;;4947658;28;115036;-80
2022/12/10 01:08:59;;;;;;;48.30;25.52;;;2.10;74.70;;;;;;4928723;28;114864;-80
2022/12/10 01:11:30;;;;;;;46.65;25.85;;;2.00;74.60;;;;;;4912584;28;114417;-80
2022/12/10 01:13:58;;;;;;;50.42;27.15;;;2.00;74.60;;;;;;4910481;28;115084;-80
2022/12/10 01:16:25;;;;;;;46.50;25.95;;;2.00;74.60;;;;;;4935423;28;117186;-80
2022/12/10 01:18:57;;;;;;;53.83;27.17;;;2.00;74.60;;;;;;4926529;28;114603;-81
2022/12/10 01:21:25;;;;;;;54.45;27.73;;;2.00;74.60;;;;;;4916500;28;117353;-80
2022/12/10 01:23:52;;;;;;;52.50;27.58;;;2.00;74.50;;;;;;4918248;28;115024;-80
2022/12/10 01:26:22;;;;;;;53.28;26.95;;;2.00;74.60;;;;;;4927215;28;114610;-80
2022/12/10 01:28:52;;;;;;;58.28;28.40;;;2.00;74.60;;;;;;4929310;28;114898;-80
2022/12/10 01:31:24;;;;;;;56.22;29.33;;;2.00;74.60;;;;;;4929222;28;114335;-80
2022/12/10 01:33:52;;;;;;;53.13;27.17;;;2.00;74.50;;;;;;4927482;28;116637;-80
2022/12/10 01:36:22;;;;;;;57.25;28.95;;;2.00;74.50;;;;;;4940519;28;117225;-80
2022/12/10 01:38:50;;;;;;;55.85;29.70;;;2.00;74.60;;;;;;4944517;28;114606;-80
2022/12/10 01:41:34;;;;;;;51.45;26.88;;;2.00;74.60;;;;;;4941320;28;116250;-80
2022/12/10 01:44:28;;;;;;;55.08;28.92;;;2.00;74.50;;;;;;4927595;28;116577;-80
2022/12/10 01:46:57;;;;;;;55.28;30.50;;;2.00;74.60;;;;;;4946810;28;115530;-81
2022/12/10 01:49:26;;;;;;;61.08;30.73;;;1.90;74.70;;;;;;4935964;28;115486;-80
2022/12/10 01:51:55;;;;;;;58.38;30.20;;;1.90;74.60;;;;;;4923727;28;117069;-81
2022/12/10 01:54:28;;;;;;;56.33;29.52;;;1.90;74.60;;;;;;4930464;28;115410;-81
2022/12/10 01:57:04;;;;;;;56.47;30.17;;;2.00;74.70;;;;;;4942210;28;114759;-81
2022/12/10 01:59:32;;;;;;;59.28;30.50;;;2.00;74.70;;;;;;4931410;28;114394;-81
2022/12/10 02:02:22;;;;;;;58.03;30.15;;;2.00;74.70;;;;;;4895624;28;114437;-80
2022/12/10 02:05:27;;;;;;;59.08;31.23;;;2.00;74.70;;;;;;4936422;28;117435;-80
2022/12/10 02:08:26;;;;;;;58.25;30.00;;;2.10;74.70;;;;;;4926316;28;118744;-80
2022/12/10 02:11:28;;;;;;;64.93;32.47;;;2.10;74.70;;;;;;4913489;28;114886;-80
2022/12/10 02:14:13;;;;;;;72.32;34.20;;;2.10;74.70;;;;;;4917634;28;115607;-81
2022/12/10 02:16:46;;;;;;;75.68;35.22;;;2.10;74.60;;;;;;4940213;28;115317;-81
2022/12/10 02:19:44;;;;;;;66.50;33.75;;;2.00;74.60;;;;;;4945526;28;114572;-80
2022/12/10 02:22:11;;;;;;;83.22;35.88;;;2.00;74.60;;;;;;4914615;28;115886;-81
2022/12/10 02:24:38;;;;;;;77.57;35.90;;;2.00;74.50;;;;;;4910590;28;114496;-81
2022/12/10 02:27:29;;;;;;;80.80;37.35;;;2.00;74.50;;;;;;4909606;28;114474;-81
2022/12/10 02:29:57;;;;;;;79.85;36.85;;;2.00;74.40;;;;;;4925811;28;114820;-79
2022/12/10 02:32:33;;;;;;;83.70;35.97;;;1.90;74.60;;;;;;4896613;28;116471;-80
2022/12/10 02:35:05;;;;;;;77.95;36.47;;;2.00;74.60;;;;;;4895810;28;114432;-80
2022/12/10 02:37:40;;;;;;;79.05;37.00;;;1.90;74.60;;;;;;4912082;28;115350;-80
2022/12/10 02:40:13;;;;;;;75.25;36.22;;;1.90;74.70;;;;;;4910176;28;115686;-80
2022/12/10 02:42:44;;;;;;;67.07;33.10;;;1.90;74.70;;;;;;4897232;28;114554;-80
2022/12/10 02:45:12;;;;;;;74.20;33.67;;;2.00;74.80;;;;;;4914226;28;114613;-80
2022/12/10 02:47:40;;;;;;;75.47;35.38;;;2.00;74.70;;;;;;4909826;28;115026;-80
2022/12/10 02:50:07;;;;;;;77.72;36.80;;;2.00;74.70;;;;;;4893354;28;116207;-80
2022/12/10 02:52:35;;;;;;;78.25;37.85;;;2.00;74.60;;;;;;4911900;28;115114;-81
2022/12/10 02:55:03;;;;;;;77.38;37.78;;;2.00;74.60;;;;;;4926355;28;115342;-80
2022/12/10 02:58:08;;;;;;;68.95;33.95;;;2.00;74.60;;;;;;4900659;28;118755;-80
2022/12/10 03:01:01;;;;;;;76.25;37.42;;;1.90;74.70;;;;;;4938626;28;114721;-80
2022/12/10 03:04:06;;;;;;;71.85;34.20;;;2.00;74.70;;;;;;4940451;28;117271;-80
2022/12/10 03:06:39;;;;;;;78.15;35.88;;;1.90;74.70;;;;;;4927062;28;115505;-80
2022/12/10 03:09:26;;;;;;;73.93;34.50;;;1.90;74.80;;;;;;4893049;28;118306;-81
2022/12/10 03:12:18;;;;;;;71.82;33.30;;;1.90;74.70;;;;;;4921418;28;114836;-80
2022/12/10 03:14:45;;;;;;;72.07;34.10;;;2.00;74.70;;;;;;4921588;28;114708;-80
2022/12/10 03:17:13;;;;;;;75.90;35.00;;;2.00;74.70;;;;;;4893977;28;114595;-81
2022/12/10 03:19:46;;;;;;;65.25;32.42;;;2.00;74.70;;;;;;4925283;28;118845;-80
2022/12/10 03:22:14;;;;;;;69.07;33.30;;;2.00;74.70;;;;;;4923151;28;114732;-80
2022/12/10 03:24:42;;;;;;;63.50;32.45;;;1.90;74.80;;;;;;4926965;28;114507;-80
2022/12/10 03:27:11;;;;;;;78.38;35.97;;;2.00;74.80;;;;;;4909382;28;114813;-79
2022/12/10 03:29:49;;;;;;;70.50;33.85;;;2.00;74.70;;;;;;4909660;28;117148;-79
2022/12/10 03:32:18;;;;;;;83.53;37.20;;;2.00;74.80;;;;;;4895552;28;115871;-80
2022/12/10 03:34:45;;;;;;;73.50;34.50;;;2.00;74.70;;;;;;4941784;28;114581;-80
2022/12/10 03:37:12;;;;;;;73.53;35.08;;;2.00;74.70;;;;;;4946471;28;114598;-80
2022/12/10 03:39:41;;;;;;;73.78;33.25;;;2.00;74.70;;;;;;4939575;28;115706;-80
2022/12/10 03:42:09;;;;;;;74.65;33.47;;;2.00;74.70;;;;;;4925890;28;114661;-80
2022/12/10 03:44:38;;;;;;;73.57;34.55;;;2.00;74.70;;;;;;4911200;28;114615;-79
2022/12/10 03:47:06;;;;;;;74.97;34.40;;;1.90;74.70;;;;;;4930975;28;114278;-79
2022/12/10 03:49:33;;;;;;;77.40;35.60;;;2.00;74.70;;;;;;4945631;28;115100;-79
2022/12/10 03:52:01;;;;;;;75.72;35.03;;;2.00;74.60;;;;;;4943478;28;115809;-79
2022/12/10 03:54:32;;;;;;;80.53;36.08;;;1.90;74.60;;;;;;4934679;28;114429;-79
2022/12/10 03:57:02;;;;;;;71.00;33.50;;;1.90;74.70;;;;;;4946875;28;114321;-79
2022/12/10 03:59:29;;;;;;;72.22;32.60;;;1.90;74.70;;;;;;4942321;28;115596;-80
2022/12/10 04:01:57;;;;;;;74.13;34.83;;;1.90;74.80;;;;;;4927736;28;114810;-80
2022/12/10 04:04:25;;;;;;;75.85;34.92;;;2.00;74.80;;;;;;4927833;28;114606;-80
2022/12/10 04:06:53;;;;;;;69.60;34.08;;;2.00;74.90;;;;;;4923639;28;115192;-79
2022/12/10 04:09:20;;;;;;;70.15;34.75;;;2.00;74.90;;;;;;4928160;28;115013;-80
2022/12/10 04:11:47;;;;;;;75.30;34.60;;;2.10;74.90;;;;;;4938834;28;115259;-80
2022/12/10 04:17:00;;;;;;;72.90;36.35;;;2.10;74.90;;;;;;4947281;28;114393;-79
2022/12/10 04:19:28;;;;;;;71.20;35.15;;;2.10;74.90;;;;;;4946109;28;115742;-80
2022/12/10 04:27:30;;;;;;;70.30;33.60;;;2.10;74.80;;;;;;4944227;28;114466;-79
2022/12/10 04:29:58;;;;;;;66.45;34.05;;;2.10;74.70;;;;;;4943603;28;115219;-79
2022/12/10 04:32:27;;;;;;;68.72;32.95;;;2.10;74.80;;;;;;4928691;28;114804;-79
2022/12/10 04:34:55;;;;;;;67.65;32.95;;;2.10;74.80;;;;;;4908841;28;114404;-80
2022/12/10 04:37:22;;;;;;;70.55;33.88;;;2.10;74.80;;;;;;4941976;28;114542;-80
2022/12/10 04:39:50;;;;;;;67.63;32.30;;;2.10;74.70;;;;;;4923296;28;115112;-80
2022/12/10 04:42:18;;;;;;;63.65;32.85;;;2.10;74.70;;;;;;4911321;28;115141;-80
2022/12/10 04:44:45;;;;;;;67.07;32.65;;;2.10;74.70;;;;;;4926726;28;114323;-79
2022/12/10 04:47:12;;;;;;;64.63;30.98;;;2.20;74.70;;;;;;4925901;28;114617;-81
2022/12/10 04:49:40;;;;;;;68.13;30.42;;;2.10;74.70;;;;;;4931114;28;115361;-80
2022/12/10 04:52:10;;;;;;;68.95;31.60;;;2.10;74.70;;;;;;4928221;28;115055;-80
2022/12/10 04:54:38;;;;;;;67.55;32.55;;;2.10;74.70;;;;;;4929033;28;114588;-80
2022/12/10 04:57:06;;;;;;;67.57;29.30;;;2.10;74.60;;;;;;4929924;28;114471;-81
2022/12/10 04:59:36;;;;;;;64.55;30.83;;;2.10;74.60;;;;;;4929404;28;115213;-81
2022/12/10 05:02:04;;;;;;;71.70;32.08;;;2.10;74.60;;;;;;4929337;28;116156;-79
2022/12/10 05:04:31;;;;;;;73.88;33.03;;;2.10;74.60;;;;;;4930183;28;114338;-80
2022/12/10 05:06:59;;;;;;;89.45;37.83;;;2.10;74.60;;;;;;4923466;28;114388;-80
2022/12/10 05:09:26;;;;;;;76.43;34.67;;;2.00;74.50;;;;;;4913676;28;115050;-80
2022/12/10 05:11:53;;;;;;;76.78;34.00;;;2.10;74.50;;;;;;4917222;28;115313;-80
2022/12/10 05:14:20;;;;;;;61.00;29.80;;;2.00;74.60;;;;;;4915168;28;114393;-78
2022/12/10 05:16:50;;;;;;;78.07;35.50;;;1.90;74.70;;;;;;4920206;28;114437;-78
2022/12/10 05:19:19;;;;;;;73.80;35.08;;;1.90;74.80;;;;;;4927820;28;115195;-79
2022/12/10 05:24:32;;;;;;;71.90;32.13;;;2.00;75.00;;;;;;4948602;28;114714;-79
2022/12/10 05:26:59;;;;;;;66.82;31.42;;;1.90;74.90;;;;;;4947927;28;114539;-79
2022/12/10 05:29:26;;;;;;;63.42;29.48;;;1.90;74.90;;;;;;4933924;28;115538;-79
2022/12/10 05:31:53;;;;;;;63.40;29.90;;;1.90;74.90;;;;;;4943388;28;114706;-79
2022/12/10 05:34:21;;;;;;;64.10;29.77;;;1.90;74.90;;;;;;4929483;28;114432;-80
2022/12/10 05:36:48;;;;;;;60.03;29.50;;;1.90;74.80;;;;;;4929541;28;114484;-79
2022/12/10 05:39:15;;;;;;;64.00;29.92;;;1.90;74.80;;;;;;4928056;28;116255;-79
2022/12/10 05:41:43;;;;;;;64.30;29.65;;;1.90;74.90;;;;;;4928123;28;115145;-80
2022/12/10 05:44:11;;;;;;;65.57;30.98;;;1.90;74.90;;;;;;4941598;28;114485;-80
2022/12/10 05:46:38;;;;;;;60.33;28.88;;;1.90;74.90;;;;;;4948963;28;114472;-79
2022/12/10 05:49:06;;;;;;;65.75;31.35;;;1.90;75.00;;;;;;4910180;28;115152;-79
2022/12/10 05:51:35;;;;;;;69.13;33.28;;;1.90;75.00;;;;;;4946231;28;114956;-80
2022/12/10 05:54:04;;;;;;;65.20;30.55;;;2.00;75.00;;;;;;4931641;28;114378;-78
2022/12/10 05:56:31;;;;;;;64.50;31.55;;;2.00;75.00;;;;;;4912078;28;114720;-78
2022/12/10 05:59:00;;;;;;;65.70;31.65;;;2.00;75.00;;;;;;4931849;28;115354;-78
2022/12/10 06:01:31;;;;;;;60.67;30.33;;;2.00;75.00;;;;;;4931623;28;115656;-80
2022/12/10 06:03:59;;;;;;;59.28;30.13;;;2.10;75.00;;;;;;4905843;28;114485;-79
2022/12/10 06:06:32;;;;;;;67.10;31.05;;;2.10;75.00;;;;;;4908545;28;114973;-79
2022/12/10 06:09:00;;;;;;;66.80;32.73;;;2.10;75.00;;;;;;4932306;28;115099;-80
2022/12/10 06:11:27;;;;;;;71.65;32.92;;;2.10;74.90;;;;;;4931922;28;114790;-81
2022/12/10 06:13:56;;;;;;;74.95;35.78;;;2.10;74.90;;;;;;4909812;28;114889;-81
2022/12/10 06:16:23;;;;;;;71.60;34.13;;;2.10;74.80;;;;;;4907526;28;114841;-79
2022/12/10 06:18:51;;;;;;;67.32;31.95;;;2.10;74.80;;;;;;4932481;28;115620;-79
2022/12/10 06:21:18;;;;;;;60.28;30.42;;;2.10;74.70;;;;;;4930840;28;115369;-80
2022/12/10 06:23:46;;;;;;;67.25;31.65;;;2.10;74.80;;;;;;4932402;28;114280;-80
2022/12/10 06:26:21;;;;;;;63.03;31.65;;;2.10;74.70;;;;;;4910858;28;114637;-80
2022/12/10 06:28:49;;;;;;;61.13;30.75;;;2.10;74.70;;;;;;4920681;28;115129;-81
2022/12/10 06:31:17;;;;;;;65.43;33.17;;;2.10;74.60;;;;;;4930770;28;118229;-80
2022/12/10 06:33:44;;;;;;;57.03;30.20;;;2.10;74.70;;;;;;4906526;28;114502;-80
2022/12/10 06:36:13;;;;;;;57.67;30.25;;;2.10;74.60;;;;;;4938105;28;114494;-79
2022/12/10 06:38:40;;;;;;;59.72;31.38;;;2.10;74.60;;;;;;4930807;28;115297;-81
2022/12/10 06:41:09;;;;;;;66.60;31.73;;;2.10;74.60;;;;;;4933297;28;114600;-80
2022/12/10 06:43:38;;;;;;;58.33;27.92;;;2.10;74.70;;;;;;4903740;28;114606;-81
2022/12/10 06:46:12;;;;;;;62.92;30.15;;;2.00;74.60;;;;;;4932701;28;114430;-80
2022/12/10 06:48:40;;;;;;;;;;;2.00;74.70;;;;;;4921909;28;115156;-81
2022/12/10 06:51:08;;;;;;;62.08;29.83;;;1.90;74.80;;;;;;4930451;28;115184;-79
2022/12/10 06:53:36;;;;;;;61.33;29.73;;;1.90;75.00;;;;;;4925669;28;114433;-79
2022/12/10 06:56:04;;;;;;;60.83;30.33;;;1.90;75.00;;;;;;4947839;28;114978;-78
2022/12/10 06:58:32;;;;;;;69.90;32.22;;;2.00;74.90;;;;;;4912606;28;115133;-78
2022/12/10 07:01:20;;;;;;;56.90;29.83;;;2.10;74.80;;;;;;4939297;28;114568;-79
2022/12/10 07:03:51;;;;;;;65.05;32.35;;;2.10;74.90;;;;;;4920644;28;114447;-78
2022/12/10 07:06:19;;;;;;;58.38;30.27;;;2.00;74.80;;;;;;4927357;28;114701;-79
2022/12/10 07:08:48;;;;;;;57.38;28.90;;;2.00;74.80;;;;;;4927365;28;115578;-80
2022/12/10 07:11:18;;;;;;;59.28;31.20;;;2.00;74.90;;;;;;4925212;28;114883;-79
2022/12/10 07:13:45;;;;;;;61.88;30.88;;;2.00;74.80;;;;;;4924602;28;116530;-80
2022/12/10 07:16:17;;;;;;;62.83;31.83;;;2.10;74.80;;;;;;4927587;28;114560;-79
2022/12/10 07:18:45;;;;;;;60.03;31.65;;;2.00;74.80;;;;;;4923546;28;115221;-79
2022/12/10 07:21:20;;;;;;;60.10;31.80;;;2.10;74.80;;;;;;4935282;28;114766;-79
2022/12/10 07:23:48;;;;;;;60.47;30.27;;;2.10;74.80;;;;;;4927823;28;114735;-79
2022/12/10 07:26:15;;;;;;;60.55;29.40;;;2.10;74.70;;;;;;4916577;28;114942;-79
2022/12/10 07:28:42;;;;;;;62.28;32.53;;;2.00;74.70;;;;;;4925295;28;118108;-79
2022/12/10 07:31:20;;;;;;;63.03;31.08;;;1.90;74.70;;;;;;4926327;28;115452;-79
2022/12/10 07:33:47;;;;;;;67.15;32.45;;;1.90;74.80;;;;;;4927726;28;114338;-79
2022/12/10 07:36:15;;;;;;;64.18;31.75;;;2.00;74.90;;;;;;4927313;28;114348;-80
2022/12/10 07:38:42;;;;;;;58.38;29.77;;;2.00;74.90;;;;;;4929698;28;116183;-80
2022/12/10 07:41:11;;;;;;;70.82;33.00;;;2.00;74.90;;;;;;4926731;28;114826;-80
2022/12/10 07:43:40;;;;;;;71.03;32.45;;;2.00;74.90;;;;;;4907741;28;114428;-82
2022/12/10 07:46:13;;;;;;;71.43;33.13;;;2.10;74.80;;;;;;4911884;28;114561;-80
2022/12/10 07:48:43;;;;;;;60.13;30.52;;;2.00;74.70;;;;;;4910002;28;116496;-80
2022/12/10 07:51:10;;;;;;;66.20;32.17;;;2.00;74.70;;;;;;4921122;28;114584;-80
2022/12/10 07:53:38;;;;;;;62.03;31.67;;;2.00;74.80;;;;;;4927627;28;114434;-80
2022/12/10 07:56:06;;;;;;;62.30;32.10;;;2.10;74.70;;;;;;4927727;28;114558;-79
2022/12/10 07:58:33;;;;;;;67.35;32.20;;;2.00;74.70;;;;;;4926859;28;115092;-79
2022/12/10 08:01:07;;;;;;;62.08;31.30;;;2.00;75.20;;;;;;4926348;28;114566;-79
2022/12/10 08:03:34;;;;;;;61.03;30.98;;;2.10;75.40;;;;;;4925431;28;114628;-80
2022/12/10 08:06:06;;;;;;;57.03;30.73;;;2.10;75.10;;;;;;4926929;28;114545;-79
2022/12/10 08:08:35;;;;;;;59.75;30.98;;;2.10;74.90;;;;;;4926651;28;115113;-79
2022/12/10 08:11:02;;;;;;;56.85;30.65;;;2.00;74.80;;;;;;4946439;28;114679;-79
2022/12/10 08:13:29;;;;;;;50.67;27.38;;;1.90;74.80;;;;;;4947581;28;114434;-79
2022/12/10 08:16:20;;;;;;;53.35;28.60;;;1.90;74.60;;;;;;4944791;28;114714;-79
2022/12/10 08:18:49;;;;;;;53.67;29.88;;;1.80;74.80;;;;;;4924236;28;115737;-79
2022/12/10 08:21:19;;;;;;;59.22;29.13;;;1.70;75.00;;;;;;4924037;28;114582;-79
2022/12/10 08:23:46;;;;;;;61.63;31.67;;;1.70;75.10;;;;;;4925862;28;114716;-79
2022/12/10 08:26:16;;;;;;;54.45;28.80;;;1.60;75.10;;;;;;4929944;28;114324;-80
2022/12/10 08:28:43;;;;;;;54.35;28.55;;;1.60;75.30;;;;;;4928610;28;115218;-79
2022/12/10 08:31:12;;;;;;;57.75;29.42;;;1.60;75.50;;;;;;4911286;28;114673;-80
2022/12/10 08:33:39;;;;;;;62.35;30.98;;;1.70;75.50;;;;;;4927943;28;114851;-79
2022/12/10 08:36:08;;;;;;;62.30;32.65;;;1.70;75.50;;;;;;4932538;28;116561;-79
2022/12/10 08:38:35;;;;;;;60.05;30.92;;;1.70;75.50;;;;;;4927516;28;115098;-79
2022/12/10 08:41:11;;;;;;;60.05;31.58;;;1.70;75.40;;;;;;4924398;28;115146;-80
2022/12/10 08:43:38;;;;;;;65.35;31.65;;;1.80;75.40;;;;;;4916674;28;114317;-80
2022/12/10 08:46:05;;;;;;;54.22;29.17;;;1.90;75.20;;;;;;4915303;28;115985;-80
2022/12/10 08:48:33;;;;;;;65.70;33.03;;;1.90;75.10;;;;;;4942991;28;114849;-78
2022/12/10 08:51:01;;;;;;;65.07;33.20;;;1.90;75.10;;;;;;4928576;28;114761;-79
2022/12/10 08:53:28;;;;;;;67.63;34.55;;;1.90;75.10;;;;;;4929510;28;114713;-79
2022/12/10 08:55:58;;;;;;;60.65;32.40;;;2.00;75.10;;;;;;4927718;28;114787;-79
2022/12/10 08:58:25;;;;;;;65.90;32.58;;;2.00;75.00;;;;;;4927810;28;116537;-80
2022/12/10 09:00:52;;;;;;;61.72;32.17;;;2.00;75.00;;;;;;4926803;28;114884;-81
2022/12/10 09:03:20;;;;;;;54.35;29.77;;;2.00;75.00;;;;;;4909666;28;114460;-80
2022/12/10 09:05:47;;;;;;;65.60;32.97;;;2.00;74.90;;;;;;4931314;28;114746;-80
2022/12/10 09:08:14;;;;;;;62.35;32.28;;;2.00;74.90;;;;;;4939708;28;117151;-80
2022/12/10 09:10:42;;;;;;;63.28;30.55;;;1.90;74.80;;;;;;4937067;28;116453;-80
2022/12/10 09:13:09;;;;;;;52.22;28.80;;;1.80;74.70;;;;;;4940256;28;115477;-80
2022/12/10 09:15:36;;;;;;;69.72;34.63;;;1.80;74.80;;;;;;4947757;28;114432;-80
2022/12/10 09:18:03;;;;;;;64.85;33.33;;;1.70;74.90;;;;;;4930299;28;116040;-80
2022/12/10 09:20:31;;;;;;;60.13;30.27;;;1.70;75.10;;;;;;4928674;28;116468;-80
2022/12/10 09:22:58;;;;;;;65.55;34.63;;;1.60;75.10;;;;;;4911749;28;114626;-80
2022/12/10 09:25:25;;;;;;;60.88;30.98;;;1.60;75.10;;;;;;4942250;28;114773;-81
2022/12/10 09:27:52;;;;;;;61.75;29.75;;;1.50;75.20;;;;;;4946890;28;116139;-80
2022/12/10 09:30:20;;;;;;;59.60;31.13;;;1.50;75.20;;;;;;4929666;28;114647;-80
2022/12/10 09:32:50;;;;;;;63.08;32.47;;;1.50;75.20;;;;;;4931914;28;114641;-80
2022/12/10 09:35:17;;;;;;;62.38;33.05;;;1.40;75.40;;;;;;4931157;28;114781;-80
2022/12/10 09:37:47;;;;;;;60.40;32.47;;;1.50;75.50;;;;;;4928539;28;115687;-79
2022/12/10 09:40:18;;;;;;;55.33;30.20;;;1.50;75.50;;;;;;4927567;28;114669;-80
2022/12/10 09:43:25;;;;;;;55.33;29.38;;;1.40;75.60;;;;;;4899379;28;114684;-80
2022/12/10 09:46:02;;;;;;;54.40;29.40;;;1.50;75.70;;;;;;4927994;28;116139;-80
2022/12/10 09:48:47;;;;;;;57.70;32.90;;;1.60;75.50;;;;;;4914127;28;115064;-78
2022/12/10 09:51:24;;;;;;;58.83;31.23;;;1.60;75.70;;;;;;4942512;28;114890;-79
2022/12/10 09:53:58;;;;;;;60.08;34.05;;;1.60;75.60;;;;;;4929531;28;114346;-79
2022/12/10 09:56:36;;;;;;;68.20;35.22;;;1.60;75.50;;;;;;4927533;28;114444;-79
2022/12/10 09:59:11;;;;;;;58.85;31.23;;;1.70;75.40;;;;;;4916714;28;115255;-78
2022/12/10 10:01:39;;;;;;;66.30;34.33;;;1.70;75.20;;;;;;4912569;28;115421;-79
2022/12/10 10:04:06;;;;;;;64.43;33.33;;;1.60;75.20;;;;;;4916096;28;114469;-79
2022/12/10 10:06:33;;;;;;;68.82;33.72;;;1.60;75.40;;;;;;4930082;28;114604;-79
2022/12/10 10:09:01;;;;;;;59.30;32.78;;;1.50;75.50;;;;;;4912515;28;115207;-79
2022/12/10 10:11:32;;;;;;;69.22;34.75;;;1.60;75.50;;;;;;4928002;28;114752;-80
2022/12/10 10:14:24;;;;;;;61.45;34.83;;;1.60;75.60;;;;;;4928434;28;117438;-80
2022/12/10 10:17:04;;;;;;;64.47;35.08;;;1.70;75.60;;;;;;4919081;28;114662;-79
2022/12/10 10:19:32;;;;;;;55.78;29.02;;;1.70;75.60;;;;;;4923611;28;115086;-78
2022/12/10 10:22:00;;;;;;;51.28;29.88;;;1.60;75.40;;;;;;4918416;28;115724;-78
2022/12/10 10:24:39;;;;;;;55.53;30.75;;;1.60;75.30;;;;;;4927802;28;114582;-79
2022/12/10 10:27:19;;;;;;;55.35;29.73;;;1.60;75.40;;;;;;4909980;28;115468;-79
2022/12/10 10:29:49;;;;;;;51.70;28.90;;;1.60;75.50;;;;;;4926828;28;115064;-79
2022/12/10 10:32:40;;;;;;;53.03;29.85;;;1.60;75.60;;;;;;4937728;28;115687;-79
2022/12/10 10:35:18;;;;;;;52.47;29.17;;;1.60;75.50;;;;;;4937729;28;114639;-79
2022/12/10 10:37:45;;;;;;;58.50;32.00;;;1.60;75.40;;;;;;4901008;28;116786;-79
2022/12/10 10:40:25;;;;;;;56.28;30.17;;;1.50;75.50;;;;;;4908005;28;115292;-79
2022/12/10 10:42:57;;;;;;;60.58;33.45;;;1.50;75.60;;;;;;4936611;28;116230;-79
2022/12/10 10:45:48;;;;;;;57.67;29.85;;;1.50;75.50;;;;;;4937741;28;114660;-79
2022/12/10 10:48:21;;;;;;;58.30;31.20;;;1.40;75.50;;;;;;4917975;28;114941;-79
2022/12/10 10:51:18;;;;;;;50.05;27.23;;;1.40;75.60;;;;;;4907260;28;116062;-79
2022/12/10 10:53:54;;;;;;;73.15;37.13;;;1.40;75.60;;;;;;4918789;28;115020;-79
2022/12/10 10:56:37;;;;;;;55.03;30.23;;;1.40;75.60;;;;;;4924479;28;116110;-80
2022/12/10 10:59:16;;;;;;;53.30;29.98;;;1.40;75.70;;;;;;4918101;28;114594;-79
2022/12/10 11:01:53;;;;;;;40.65;22.10;;;1.40;75.70;;;;;;4931682;28;115638;-79
2022/12/10 11:04:38;;;;;;;43.47;23.50;;;1.40;75.60;;;;;;4926125;28;115860;-79
2022/12/10 11:07:18;;;;;;;51.47;27.73;;;1.40;75.30;;;;;;4901736;28;117656;-77
2022/12/10 11:09:46;;;;;;;46.78;25.83;;;1.40;75.40;;;;;;4925162;28;115087;-78
2022/12/10 11:12:37;;;;;;;55.42;30.00;;;1.30;75.60;;;;;;4928834;28;115078;-79
2022/12/10 11:15:32;;;;;;;55.38;30.38;;;1.30;75.80;;;;;;4930368;28;115277;-79
2022/12/10 11:18:33;;;;;;;59.33;31.52;;;1.40;75.80;;;;;;4921564;28;114775;-78
2022/12/10 11:21:22;;;;;;;52.42;28.67;;;1.40;75.70;;;;;;4925261;28;114609;-78
2022/12/10 11:23:53;;;;;;;51.20;30.10;;;1.40;75.70;;;;;;4907910;28;115773;-77
2022/12/10 11:26:49;;;;;;;52.30;28.45;;;1.30;75.70;;;;;;4891232;28;117587;-78
2022/12/10 11:29:43;;;;;;;57.23;31.00;;;1.40;75.70;;;;;;4908407;28;114843;-79
2022/12/10 11:32:28;;;;;;;59.85;31.45;;;1.40;75.80;;;;;;4918754;28;114545;-78
2022/12/10 11:35:46;;;;;;;59.50;31.70;;;1.40;75.60;;;;;;4906524;28;115221;-78
2022/12/10 11:39:02;;;;;;;55.00;30.65;;;1.30;75.60;;;;;;4887214;28;117507;-79
2022/12/10 11:42:00;;;;;;;54.70;29.25;;;1.20;75.70;;;;;;4911713;28;115044;-79
2022/12/10 11:45:11;;;;;;;60.05;30.83;;;1.20;75.70;;;;;;4893294;28;115052;-80
2022/12/10 11:48:13;;;;;;;50.92;28.40;;;1.10;75.80;;;;;;4922269;28;116985;-80
2022/12/10 11:50:48;;;;;;;55.55;30.73;;;1.20;76.10;;;;;;4934190;28;114690;-79
2022/12/10 11:53:56;;;;;;;55.15;29.42;;;1.20;76.10;;;;;;4927045;28;116101;-79
2022/12/10 11:56:44;;;;;;;53.90;28.30;;;1.20;76.10;;;;;;4939196;28;114564;-79
2022/12/10 11:59:35;;;;;;;51.42;27.13;;;1.30;76.00;;;;;;4914051;28;115863;-79
2022/12/10 12:02:51;;;;;;;55.85;30.13;;;1.20;75.90;;;;;;4927840;28;114708;-79
2022/12/10 12:05:26;;;;;;;58.65;29.77;;;1.20;76.00;;;;;;4930884;28;114585;-80
2022/12/10 12:08:23;;;;;;;58.53;30.05;;;1.20;76.00;;;;;;4946812;28;114742;-80
2022/12/10 12:11:23;;;;;;;55.05;28.25;;;1.20;76.10;;;;;;4927393;28;116243;-79
2022/12/10 12:14:16;;;;;;;57.00;29.75;;;1.20;76.00;;;;;;4945801;28;114899;-80
2022/12/10 12:17:00;;;;;;;60.20;31.58;;;1.20;76.20;;;;;;4927047;28;114736;-78
2022/12/10 12:20:01;;;;;;;56.47;29.90;;;1.20;76.30;;;;;;4912576;28;116367;-81
2022/12/10 12:22:42;;;;;;;60.65;31.75;;;1.20;76.30;;;;;;4928323;28;115018;-79
2022/12/10 12:25:34;;;;;;;64.93;33.95;;;1.20;76.20;;;;;;4940593;28;114671;-79
2022/12/10 12:28:21;;;;;;;72.50;34.20;;;1.30;76.30;;;;;;4929386;28;114398;-79
2022/12/10 12:30:53;;;;;;;61.72;31.73;;;1.30;76.30;;;;;;4945128;28;114886;-79
2022/12/10 12:33:51;;;;;;;63.53;33.90;;;1.30;76.20;;;;;;4926701;28;115122;-79
2022/12/10 12:36:28;;;;;;;61.15;32.42;;;1.40;76.20;;;;;;4933642;28;114580;-80
2022/12/10 12:39:24;;;;;;;61.30;34.63;;;1.40;76.20;;;;;;4931707;28;114909;-80
2022/12/10 12:42:17;;;;;;;62.92;33.45;;;1.40;76.20;;;;;;4933916;28;116279;-80
2022/12/10 12:45:13;;;;;;;59.90;30.45;;;1.30;76.20;;;;;;4941810;28;115052;-80
2022/12/10 12:47:53;;;;;;;61.20;33.25;;;1.30;76.30;;;;;;4927536;28;114739;-79
2022/12/10 12:51:06;;;;;;;65.35;32.15;;;1.40;76.30;;;;;;4918151;28;116652;-81
2022/12/10 12:53:34;;;;;;;61.28;31.20;;;1.40;76.20;;;;;;4933520;28;114565;-80
2022/12/10 12:56:42;;;;;;;56.30;28.67;;;1.40;76.30;;;;;;4917205;28;115072;-81
2022/12/10 12:59:29;;;;;;;66.75;31.85;;;1.40;76.30;;;;;;4922354;28;115766;-79
2022/12/10 13:02:36;;;;;;;61.05;31.13;;;1.30;76.10;;;;;;4934560;28;114822;-79
2022/12/10 13:05:04;;;;;;;70.32;33.90;;;1.30;76.30;;;;;;4932447;28;114465;-80
2022/12/10 13:07:36;;;;;;;58.15;31.00;;;1.30;76.20;;;;;;4933844;28;115229;-79
2022/12/10 13:10:24;;;;;;;59.90;32.75;;;1.30;76.10;;;;;;4913657;28;114857;-78
2022/12/10 13:13:27;;;;;;;66.53;32.45;;;1.30;76.30;;;;;;4940338;28;115832;-79
2022/12/10 13:15:54;;;;;;;66.97;33.38;;;1.30;76.30;;;;;;4933316;28;114825;-82